Terminal Aerodrome Forecast
Issued by NWS

Home | Current Version | Previous Version | Graphics & Text | Print | Product List | Glossary Off
Versions: 1 2 3 4 5 6 7 8 9 10 11 12 13 14

000
FTUS43 KFGF 220500
TAFBJI
TAF
KBJI 220537Z 2206/2306 14008KT 5SM BR OVC004
     FM221600 11006KT 2SM -RA BR OVC003
     FM230000 10008KT 2SM -RASN OVC003=

USA.gov is the U.S. government's official web portal to all federal, state and local government web resources and services.